sensor_id;sensor_type;location;lat;lon;timestamp;temperature;humidity
51739;DHT22;37815;52.692;6.226;2022-08-14T00:01:22;25.10;69.60
51739;DHT22;37815;52.692;6.226;2022-08-14T00:06:23;25.00;69.60
51739;DHT22;37815;52.692;6.226;2022-08-14T00:11:23;25.00;69.60
51739;DHT22;37815;52.692;6.226;2022-08-14T00:16:24;25.00;69.70
51739;DHT22;37815;52.692;6.226;2022-08-14T00:21:25;25.00;69.80
51739;DHT22;37815;52.692;6.226;2022-08-14T00:26:26;24.90;69.80
51739;DHT22;37815;52.692;6.226;2022-08-14T00:31:26;24.90;69.80
51739;DHT22;37815;52.692;6.226;2022-08-14T00:36:28;24.90;69.80
51739;DHT22;37815;52.692;6.226;2022-08-14T00:41:30;24.90;69.90
51739;DHT22;37815;52.692;6.226;2022-08-14T00:46:31;24.80;69.80
51739;DHT22;37815;52.692;6.226;2022-08-14T00:51:32;24.80;69.90
51739;DHT22;37815;52.692;6.226;2022-08-14T00:56:33;24.80;70.00
51739;DHT22;37815;52.692;6.226;2022-08-14T01:01:35;24.80;70.00
51739;DHT22;37815;52.692;6.226;2022-08-14T01:06:36;24.80;70.10
51739;DHT22;37815;52.692;6.226;2022-08-14T01:11:37;24.70;70.10
51739;DHT22;37815;52.692;6.226;2022-08-14T01:16:38;24.70;70.10
51739;DHT22;37815;52.692;6.226;2022-08-14T01:21:39;24.70;70.10
51739;DHT22;37815;52.692;6.226;2022-08-14T01:26:41;24.60;70.10
51739;DHT22;37815;52.692;6.226;2022-08-14T01:31:42;24.60;70.20
51739;DHT22;37815;52.692;6.226;2022-08-14T01:36:49;24.60;70.20
51739;DHT22;37815;52.692;6.226;2022-08-14T01:41:50;24.60;70.30
51739;DHT22;37815;52.692;6.226;2022-08-14T01:47:03;24.50;70.30
51739;DHT22;37815;52.692;6.226;2022-08-14T01:52:11;24.50;70.30
51739;DHT22;37815;52.692;6.226;2022-08-14T01:57:12;24.50;70.40
51739;DHT22;37815;52.692;6.226;2022-08-14T02:02:13;24.50;70.40
51739;DHT22;37815;52.692;6.226;2022-08-14T02:07:14;24.50;70.40
51739;DHT22;37815;52.692;6.226;2022-08-14T02:12:15;24.40;70.40
51739;DHT22;37815;52.692;6.226;2022-08-14T02:17:15;24.40;70.40
51739;DHT22;37815;52.692;6.226;2022-08-14T02:22:17;24.40;70.40
51739;DHT22;37815;52.692;6.226;2022-08-14T02:27:18;24.40;70.50
51739;DHT22;37815;52.692;6.226;2022-08-14T02:32:20;24.30;70.50
51739;DHT22;37815;52.692;6.226;2022-08-14T02:37:21;24.30;70.50
51739;DHT22;37815;52.692;6.226;2022-08-14T02:42:21;24.30;70.50
51739;DHT22;37815;52.692;6.226;2022-08-14T02:47:24;24.30;70.60
51739;DHT22;37815;52.692;6.226;2022-08-14T02:52:27;24.30;70.70
51739;DHT22;37815;52.692;6.226;2022-08-14T02:57:28;24.20;70.60
51739;DHT22;37815;52.692;6.226;2022-08-14T03:02:29;24.20;70.60
51739;DHT22;37815;52.692;6.226;2022-08-14T03:07:33;24.20;70.70
51739;DHT22;37815;52.692;6.226;2022-08-14T03:12:33;24.20;70.70
51739;DHT22;37815;52.692;6.226;2022-08-14T03:17:34;24.10;70.70
51739;DHT22;37815;52.692;6.226;2022-08-14T03:22:35;24.10;70.80
51739;DHT22;37815;52.692;6.226;2022-08-14T03:27:37;24.10;70.80
51739;DHT22;37815;52.692;6.226;2022-08-14T03:32:38;24.10;71.50
51739;DHT22;37815;52.692;6.226;2022-08-14T03:37:39;24.10;71.00
51739;DHT22;37815;52.692;6.226;2022-08-14T03:42:40;24.00;71.00
51739;DHT22;37815;52.692;6.226;2022-08-14T03:47:41;24.00;71.00
51739;DHT22;37815;52.692;6.226;2022-08-14T03:52:42;24.00;71.00
51739;DHT22;37815;52.692;6.226;2022-08-14T03:57:43;23.90;71.10
51739;DHT22;37815;52.692;6.226;2022-08-14T04:02:44;23.90;71.10
51739;DHT22;37815;52.692;6.226;2022-08-14T04:07:45;23.90;71.10
51739;DHT22;37815;52.692;6.226;2022-08-14T04:12:46;23.90;71.20
51739;DHT22;37815;52.692;6.226;2022-08-14T04:17:47;23.90;71.30
51739;DHT22;37815;52.692;6.226;2022-08-14T04:22:47;23.90;71.30
51739;DHT22;37815;52.692;6.226;2022-08-14T04:27:49;23.80;71.30
51739;DHT22;37815;52.692;6.226;2022-08-14T04:32:50;23.80;71.40
51739;DHT22;37815;52.692;6.226;2022-08-14T04:37:51;23.80;71.40
51739;DHT22;37815;52.692;6.226;2022-08-14T04:43:10;23.70;71.40
51739;DHT22;37815;52.692;6.226;2022-08-14T04:48:30;23.80;71.50
51739;DHT22;37815;52.692;6.226;2022-08-14T04:53:31;23.70;71.50
51739;DHT22;37815;52.692;6.226;2022-08-14T04:58:34;23.70;71.60
51739;DHT22;37815;52.692;6.226;2022-08-14T05:03:36;23.60;71.80
51739;DHT22;37815;52.692;6.226;2022-08-14T05:08:37;23.60;72.10
51739;DHT22;37815;52.692;6.226;2022-08-14T05:13:38;23.60;72.10
51739;DHT22;37815;52.692;6.226;2022-08-14T05:18:39;23.60;72.20
51739;DHT22;37815;52.692;6.226;2022-08-14T05:23:40;23.50;72.10
51739;DHT22;37815;52.692;6.226;2022-08-14T05:28:42;23.50;72.10
51739;DHT22;37815;52.692;6.226;2022-08-14T05:33:45;23.60;72.20
51739;DHT22;37815;52.692;6.226;2022-08-14T05:38:46;23.50;72.20
51739;DHT22;37815;52.692;6.226;2022-08-14T05:43:47;23.50;72.20
51739;DHT22;37815;52.692;6.226;2022-08-14T05:48:53;23.50;72.30
51739;DHT22;37815;52.692;6.226;2022-08-14T05:53:55;23.50;72.50
51739;DHT22;37815;52.692;6.226;2022-08-14T05:58:56;23.50;72.50
51739;DHT22;37815;52.692;6.226;2022-08-14T06:03:56;23.50;72.50
51739;DHT22;37815;52.692;6.226;2022-08-14T06:08:57;23.50;72.60
51739;DHT22;37815;52.692;6.226;2022-08-14T06:13:58;23.50;72.70
51739;DHT22;37815;52.692;6.226;2022-08-14T06:18:59;23.50;72.90
51739;DHT22;37815;52.692;6.226;2022-08-14T06:24:00;23.40;73.70
51739;DHT22;37815;52.692;6.226;2022-08-14T06:29:01;23.30;75.10
51739;DHT22;37815;52.692;6.226;2022-08-14T06:34:02;23.10;76.20
51739;DHT22;37815;52.692;6.226;2022-08-14T06:39:02;23.00;76.90
51739;DHT22;37815;52.692;6.226;2022-08-14T06:44:03;23.00;77.30
51739;DHT22;37815;52.692;6.226;2022-08-14T06:49:04;23.00;77.50
51739;DHT22;37815;52.692;6.226;2022-08-14T06:54:05;23.00;77.80
51739;DHT22;37815;52.692;6.226;2022-08-14T06:59:06;23.00;78.10
51739;DHT22;37815;52.692;6.226;2022-08-14T07:04:06;23.10;78.50
51739;DHT22;37815;52.692;6.226;2022-08-14T07:09:27;23.10;78.50
51739;DHT22;37815;52.692;6.226;2022-08-14T07:14:28;23.10;78.40
51739;DHT22;37815;52.692;6.226;2022-08-14T07:19:28;23.20;78.70
51739;DHT22;37815;52.692;6.226;2022-08-14T07:24:29;23.20;78.80
51739;DHT22;37815;52.692;6.226;2022-08-14T07:29:30;23.30;78.80
51739;DHT22;37815;52.692;6.226;2022-08-14T07:34:30;23.30;78.90
51739;DHT22;37815;52.692;6.226;2022-08-14T07:39:31;23.40;79.40
51739;DHT22;37815;52.692;6.226;2022-08-14T07:44:32;23.30;79.70
51739;DHT22;37815;52.692;6.226;2022-08-14T07:49:33;23.50;79.80
51739;DHT22;37815;52.692;6.226;2022-08-14T07:54:34;23.60;80.00
51739;DHT22;37815;52.692;6.226;2022-08-14T07:59:35;23.70;80.00
51739;DHT22;37815;52.692;6.226;2022-08-14T08:04:38;23.80;80.10
51739;DHT22;37815;52.692;6.226;2022-08-14T08:09:45;23.90;80.20
51739;DHT22;37815;52.692;6.226;2022-08-14T08:14:49;23.90;80.20
51739;DHT22;37815;52.692;6.226;2022-08-14T08:19:51;24.00;80.30
51739;DHT22;37815;52.692;6.226;2022-08-14T08:24:53;24.10;80.30
51739;DHT22;37815;52.692;6.226;2022-08-14T08:30:05;24.20;80.40
51739;DHT22;37815;52.692;6.226;2022-08-14T08:35:16;24.30;81.20
51739;DHT22;37815;52.692;6.226;2022-08-14T08:40:28;24.40;80.40
51739;DHT22;37815;52.692;6.226;2022-08-14T08:45:29;24.50;80.50
51739;DHT22;37815;52.692;6.226;2022-08-14T08:50:36;24.60;80.00
51739;DHT22;37815;52.692;6.226;2022-08-14T08:55:40;24.70;80.50
51739;DHT22;37815;52.692;6.226;2022-08-14T09:00:44;24.80;79.90
51739;DHT22;37815;52.692;6.226;2022-08-14T09:05:58;24.90;79.70
51739;DHT22;37815;52.692;6.226;2022-08-14T09:11:07;25.00;79.60
51739;DHT22;37815;52.692;6.226;2022-08-14T09:16:11;25.10;78.80
51739;DHT22;37815;52.692;6.226;2022-08-14T09:21:12;25.20;78.40
51739;DHT22;37815;52.692;6.226;2022-08-14T09:26:13;25.30;78.20
51739;DHT22;37815;52.692;6.226;2022-08-14T09:31:14;25.40;77.80
51739;DHT22;37815;52.692;6.226;2022-08-14T09:47:17;25.90;76.90
51739;DHT22;37815;52.692;6.226;2022-08-14T09:52:19;26.00;76.30
51739;DHT22;37815;52.692;6.226;2022-08-14T09:57:27;26.10;76.40
51739;DHT22;37815;52.692;6.226;2022-08-14T10:02:32;26.20;75.80
51739;DHT22;37815;52.692;6.226;2022-08-14T10:07:35;26.20;75.50
51739;DHT22;37815;52.692;6.226;2022-08-14T10:12:47;26.40;75.30
51739;DHT22;37815;52.692;6.226;2022-08-14T10:18:05;26.50;75.00
51739;DHT22;37815;52.692;6.226;2022-08-14T10:23:16;26.50;74.80
51739;DHT22;37815;52.692;6.226;2022-08-14T10:28:20;26.60;74.70
51739;DHT22;37815;52.692;6.226;2022-08-14T10:33:29;26.60;74.80
51739;DHT22;37815;52.692;6.226;2022-08-14T10:38:35;26.70;74.60
51739;DHT22;37815;52.692;6.226;2022-08-14T10:43:43;26.80;74.20
51739;DHT22;37815;52.692;6.226;2022-08-14T10:49:00;26.90;74.30
51739;DHT22;37815;52.692;6.226;2022-08-14T10:54:06;27.10;73.50
51739;DHT22;37815;52.692;6.226;2022-08-14T10:59:09;27.20;73.40
51739;DHT22;37815;52.692;6.226;2022-08-14T11:04:21;27.20;73.00
51739;DHT22;37815;52.692;6.226;2022-08-14T11:09:27;27.20;73.00
51739;DHT22;37815;52.692;6.226;2022-08-14T11:14:28;27.30;72.10
51739;DHT22;37815;52.692;6.226;2022-08-14T11:19:29;27.40;72.60
51739;DHT22;37815;52.692;6.226;2022-08-14T11:24:33;27.50;72.20
51739;DHT22;37815;52.692;6.226;2022-08-14T11:29:37;27.30;72.40
51739;DHT22;37815;52.692;6.226;2022-08-14T11:34:38;27.20;72.80
51739;DHT22;37815;52.692;6.226;2022-08-14T11:39:38;27.10;73.00
51739;DHT22;37815;52.692;6.226;2022-08-14T11:44:41;27.00;73.20
51739;DHT22;37815;52.692;6.226;2022-08-14T11:49:41;27.00;73.20
51739;DHT22;37815;52.692;6.226;2022-08-14T11:54:42;27.00;73.30
51739;DHT22;37815;52.692;6.226;2022-08-14T11:59:43;27.00;73.40
51739;DHT22;37815;52.692;6.226;2022-08-14T12:04:51;27.00;73.30
51739;DHT22;37815;52.692;6.226;2022-08-14T12:09:55;27.00;73.20
51739;DHT22;37815;52.692;6.226;2022-08-14T12:14:58;27.00;73.20
51739;DHT22;37815;52.692;6.226;2022-08-14T12:20:04;27.00;73.20
51739;DHT22;37815;52.692;6.226;2022-08-14T12:25:09;27.00;73.20
51739;DHT22;37815;52.692;6.226;2022-08-14T12:30:32;27.10;73.20
51739;DHT22;37815;52.692;6.226;2022-08-14T12:35:36;27.10;73.20
51739;DHT22;37815;52.692;6.226;2022-08-14T12:40:48;27.10;73.10
51739;DHT22;37815;52.692;6.226;2022-08-14T12:45:52;27.30;72.80
51739;DHT22;37815;52.692;6.226;2022-08-14T12:50:56;27.60;71.80
51739;DHT22;37815;52.692;6.226;2022-08-14T12:55:58;27.80;71.10
51739;DHT22;37815;52.692;6.226;2022-08-14T13:01:00;27.90;70.00
51739;DHT22;37815;52.692;6.226;2022-08-14T13:06:01;28.40;69.20
51739;DHT22;37815;52.692;6.226;2022-08-14T13:11:02;28.70;68.70
51739;DHT22;37815;52.692;6.226;2022-08-14T13:16:06;28.50;69.00
51739;DHT22;37815;52.692;6.226;2022-08-14T13:21:10;28.40;69.70
51739;DHT22;37815;52.692;6.226;2022-08-14T13:26:13;28.30;70.20
51739;DHT22;37815;52.692;6.226;2022-08-14T13:31:15;28.20;70.50
51739;DHT22;37815;52.692;6.226;2022-08-14T13:36:16;28.10;70.80
51739;DHT22;37815;52.692;6.226;2022-08-14T13:41:17;28.10;71.00
51739;DHT22;37815;52.692;6.226;2022-08-14T13:46:22;28.20;71.10
51739;DHT22;37815;52.692;6.226;2022-08-14T13:51:25;28.30;71.10
51739;DHT22;37815;52.692;6.226;2022-08-14T13:56:29;28.30;71.20
51739;DHT22;37815;52.692;6.226;2022-08-14T14:01:31;28.30;71.30
51739;DHT22;37815;52.692;6.226;2022-08-14T14:06:34;28.40;71.40
51739;DHT22;37815;52.692;6.226;2022-08-14T14:11:35;28.40;71.40
51739;DHT22;37815;52.692;6.226;2022-08-14T14:16:38;28.50;71.50
51739;DHT22;37815;52.692;6.226;2022-08-14T14:21:40;28.60;71.60
51739;DHT22;37815;52.692;6.226;2022-08-14T14:26:44;28.70;71.60
51739;DHT22;37815;52.692;6.226;2022-08-14T14:31:47;28.80;71.40
51739;DHT22;37815;52.692;6.226;2022-08-14T14:36:51;28.90;71.30
51739;DHT22;37815;52.692;6.226;2022-08-14T14:41:55;29.00;71.10
51739;DHT22;37815;52.692;6.226;2022-08-14T14:46:57;29.10;71.20
51739;DHT22;37815;52.692;6.226;2022-08-14T14:51:58;29.00;71.40
51739;DHT22;37815;52.692;6.226;2022-08-14T14:57:00;28.90;71.50
51739;DHT22;37815;52.692;6.226;2022-08-14T15:02:03;29.00;71.70
51739;DHT22;37815;52.692;6.226;2022-08-14T15:07:07;29.10;71.60
51739;DHT22;37815;52.692;6.226;2022-08-14T15:12:08;29.30;71.50
51739;DHT22;37815;52.692;6.226;2022-08-14T15:17:09;29.30;71.00
51739;DHT22;37815;52.692;6.226;2022-08-14T15:22:09;29.30;71.20
51739;DHT22;37815;52.692;6.226;2022-08-14T15:27:10;29.20;70.50
51739;DHT22;37815;52.692;6.226;2022-08-14T15:32:11;29.10;70.20
51739;DHT22;37815;52.692;6.226;2022-08-14T15:37:13;29.10;70.20
51739;DHT22;37815;52.692;6.226;2022-08-14T15:42:14;29.10;70.40
51739;DHT22;37815;52.692;6.226;2022-08-14T15:47:15;29.10;70.60
51739;DHT22;37815;52.692;6.226;2022-08-14T15:52:16;29.00;71.00
51739;DHT22;37815;52.692;6.226;2022-08-14T15:57:17;28.90;71.20
51739;DHT22;37815;52.692;6.226;2022-08-14T16:02:20;28.90;71.40
51739;DHT22;37815;52.692;6.226;2022-08-14T16:07:22;28.90;71.50
51739;DHT22;37815;52.692;6.226;2022-08-14T16:12:24;28.90;71.50
51739;DHT22;37815;52.692;6.226;2022-08-14T16:17:25;29.00;71.70
51739;DHT22;37815;52.692;6.226;2022-08-14T16:22:26;29.00;71.80
51739;DHT22;37815;52.692;6.226;2022-08-14T16:27:29;28.90;71.90
51739;DHT22;37815;52.692;6.226;2022-08-14T16:32:30;28.90;72.00
51739;DHT22;37815;52.692;6.226;2022-08-14T16:37:35;28.90;72.00
51739;DHT22;37815;52.692;6.226;2022-08-14T16:42:41;28.90;72.20
51739;DHT22;37815;52.692;6.226;2022-08-14T16:47:42;28.90;72.30
51739;DHT22;37815;52.692;6.226;2022-08-14T16:52:43;28.80;72.30
51739;DHT22;37815;52.692;6.226;2022-08-14T16:57:48;28.80;72.30
51739;DHT22;37815;52.692;6.226;2022-08-14T17:02:58;28.80;72.50
51739;DHT22;37815;52.692;6.226;2022-08-14T17:13:24;28.70;72.60
51739;DHT22;37815;52.692;6.226;2022-08-14T17:23:37;28.60;72.80
51739;DHT22;37815;52.692;6.226;2022-08-14T17:28:37;28.60;73.00
51739;DHT22;37815;52.692;6.226;2022-08-14T17:33:38;28.50;73.10
51739;DHT22;37815;52.692;6.226;2022-08-14T17:39:01;28.50;73.10
51739;DHT22;37815;52.692;6.226;2022-08-14T17:44:16;28.40;73.90
51739;DHT22;37815;52.692;6.226;2022-08-14T17:49:20;28.40;73.90
51739;DHT22;37815;52.692;6.226;2022-08-14T17:54:24;28.30;73.90
51739;DHT22;37815;52.692;6.226;2022-08-14T17:59:26;28.30;74.00
51739;DHT22;37815;52.692;6.226;2022-08-14T18:04:29;28.30;74.10
51739;DHT22;37815;52.692;6.226;2022-08-14T18:09:39;28.20;74.10
51739;DHT22;37815;52.692;6.226;2022-08-14T18:14:40;28.20;74.20
51739;DHT22;37815;52.692;6.226;2022-08-14T18:19:41;28.20;74.80
51739;DHT22;37815;52.692;6.226;2022-08-14T18:24:44;28.00;75.40
51739;DHT22;37815;52.692;6.226;2022-08-14T18:29:46;27.80;76.10
51739;DHT22;37815;52.692;6.226;2022-08-14T18:34:47;27.60;76.40
51739;DHT22;37815;52.692;6.226;2022-08-14T18:39:51;27.40;77.00
51739;DHT22;37815;52.692;6.226;2022-08-14T19:10:47;26.70;80.20
51739;DHT22;37815;52.692;6.226;2022-08-14T19:16:07;26.60;79.30
51739;DHT22;37815;52.692;6.226;2022-08-14T19:21:29;26.50;80.20
51739;DHT22;37815;52.692;6.226;2022-08-14T19:26:31;26.40;80.70
51739;DHT22;37815;52.692;6.226;2022-08-14T19:31:32;26.40;80.80
51739;DHT22;37815;52.692;6.226;2022-08-14T19:36:42;26.30;81.00
51739;DHT22;37815;52.692;6.226;2022-08-14T19:41:43;26.20;81.20
51739;DHT22;37815;52.692;6.226;2022-08-14T19:46:52;26.10;81.10
51739;DHT22;37815;52.692;6.226;2022-08-14T19:51:53;26.10;81.50
51739;DHT22;37815;52.692;6.226;2022-08-14T19:56:54;26.00;81.60
51739;DHT22;37815;52.692;6.226;2022-08-14T20:01:55;25.90;81.90
51739;DHT22;37815;52.692;6.226;2022-08-14T20:06:56;25.80;82.30
51739;DHT22;37815;52.692;6.226;2022-08-14T20:11:59;25.70;82.20
51739;DHT22;37815;52.692;6.226;2022-08-14T20:17:00;25.70;82.30
51739;DHT22;37815;52.692;6.226;2022-08-14T20:22:02;25.60;82.40
51739;DHT22;37815;52.692;6.226;2022-08-14T20:32:21;25.40;83.00
51739;DHT22;37815;52.692;6.226;2022-08-14T20:37:33;25.30;82.60
51739;DHT22;37815;52.692;6.226;2022-08-14T20:42:35;25.30;82.90
51739;DHT22;37815;52.692;6.226;2022-08-14T20:48:05;25.20;83.00
51739;DHT22;37815;52.692;6.226;2022-08-14T20:53:34;25.20;83.30
51739;DHT22;37815;52.692;6.226;2022-08-14T20:58:37;25.10;84.10
51739;DHT22;37815;52.692;6.226;2022-08-14T21:03:55;25.10;84.00
51739;DHT22;37815;52.692;6.226;2022-08-14T21:09:00;24.90;84.60
51739;DHT22;37815;52.692;6.226;2022-08-14T21:14:01;25.00;84.30
51739;DHT22;37815;52.692;6.226;2022-08-14T21:19:04;25.00;83.90
51739;DHT22;37815;52.692;6.226;2022-08-14T21:24:06;25.20;83.50
51739;DHT22;37815;52.692;6.226;2022-08-14T21:29:07;25.30;83.00
51739;DHT22;37815;52.692;6.226;2022-08-14T21:34:11;25.50;82.80
51739;DHT22;37815;52.692;6.226;2022-08-14T21:39:12;25.50;82.50
51739;DHT22;37815;52.692;6.226;2022-08-14T21:44:18;25.50;82.30
51739;DHT22;37815;52.692;6.226;2022-08-14T21:49:25;25.50;82.10
51739;DHT22;37815;52.692;6.226;2022-08-14T21:54:32;25.60;82.00
51739;DHT22;37815;52.692;6.226;2022-08-14T21:59:34;25.60;81.90
51739;DHT22;37815;52.692;6.226;2022-08-14T22:04:38;25.60;81.80
51739;DHT22;37815;52.692;6.226;2022-08-14T22:09:39;25.60;81.70
51739;DHT22;37815;52.692;6.226;2022-08-14T22:14:40;25.60;81.60
51739;DHT22;37815;52.692;6.226;2022-08-14T22:19:45;25.60;81.60
51739;DHT22;37815;52.692;6.226;2022-08-14T22:24:45;25.60;81.50
51739;DHT22;37815;52.692;6.226;2022-08-14T22:29:46;25.60;81.50
51739;DHT22;37815;52.692;6.226;2022-08-14T22:34:47;25.60;81.50
51739;DHT22;37815;52.692;6.226;2022-08-14T22:39:47;25.60;81.50
51739;DHT22;37815;52.692;6.226;2022-08-14T22:44:50;25.50;81.40
51739;DHT22;37815;52.692;6.226;2022-08-14T22:49:51;25.50;81.30
51739;DHT22;37815;52.692;6.226;2022-08-14T22:54:53;25.50;81.30
51739;DHT22;37815;52.692;6.226;2022-08-14T22:59:53;25.50;81.30
51739;DHT22;37815;52.692;6.226;2022-08-14T23:04:54;25.50;81.30
51739;DHT22;37815;52.692;6.226;2022-08-14T23:09:57;25.50;81.30
51739;DHT22;37815;52.692;6.226;2022-08-14T23:14:59;25.50;81.30
51739;DHT22;37815;52.692;6.226;2022-08-14T23:19:59;25.50;81.20
51739;DHT22;37815;52.692;6.226;2022-08-14T23:25:00;25.40;81.20
51739;DHT22;37815;52.692;6.226;2022-08-14T23:30:03;25.40;81.20
51739;DHT22;37815;52.692;6.226;2022-08-14T23:35:05;25.40;81.20
51739;DHT22;37815;52.692;6.226;2022-08-14T23:40:07;25.30;81.10
51739;DHT22;37815;52.692;6.226;2022-08-14T23:45:08;25.30;81.10
51739;DHT22;37815;52.692;6.226;2022-08-14T23:50:09;25.30;81.10
51739;DHT22;37815;52.692;6.226;2022-08-14T23:55:09;25.30;81.10
